KLM73Y EHAM-LIMF
Flight info
| Callsign | KLM73Y |
|---|---|
| Flight time | 1h 12m |
| Altitude | 39000 |
| Route | WOODY N872 NIK M624 DIK N852 SUTAL DCT GTQ DCT POGOL DCT LASAT DCT MOROK DCT GILIR DCT GEVEA DCT MOBLO DCT LURAG M135 VEROB |
| Aircraft | B738/M-SDE2E3FGHIRWXY/LB1 |
Departure
| Time | 2026-04-28 09:23 |
|---|---|
| Airport | Amsterdam Airport Schiphol (EHAM) |
Arrival
| Time | 2026-04-28 10:36 |
|---|---|
| Airport | Turin Airport (LIMF) |
| Time | Latitude | Longitude | Altitude | Speed | Heading |
|---|---|---|---|---|---|
| 2026-04-28 09:23 | 52.14357 | 4.84577 | 9701 ft | 279 kts | 177° |
| 2026-04-28 09:23 | 52.12905 | 4.84538 | 10329 ft | 281 kts | 178° |
| 2026-04-28 09:23 | 52.10910 | 4.84491 | 10796 ft | 298 kts | 178° |
| 2026-04-28 09:24 | 52.08748 | 4.84447 | 10960 ft | 323 kts | 178° |
| 2026-04-28 09:24 | 52.06397 | 4.84399 | 11156 ft | 346 kts | 178° |
| 2026-04-28 09:24 | 52.03968 | 4.84347 | 11619 ft | 357 kts | 178° |
| 2026-04-28 09:24 | 52.01466 | 4.83836 | 12346 ft | 365 kts | 195° |
| 2026-04-28 09:25 | 51.99142 | 4.82147 | 13183 ft | 369 kts | 205° |
| 2026-04-28 09:25 | 51.96822 | 4.80249 | 13933 ft | 374 kts | 204° |
| 2026-04-28 09:25 | 51.94498 | 4.78385 | 14627 ft | 378 kts | 204° |
| 2026-04-28 09:25 | 51.92203 | 4.76567 | 15397 ft | 380 kts | 203° |
| 2026-04-28 09:26 | 51.89834 | 4.74707 | 16191 ft | 381 kts | 202° |
| 2026-04-28 09:26 | 51.87430 | 4.72830 | 16936 ft | 384 kts | 203° |
| 2026-04-28 09:26 | 51.84994 | 4.70929 | 17670 ft | 388 kts | 203° |
| 2026-04-28 09:26 | 51.82565 | 4.69038 | 18416 ft | 390 kts | 203° |
| 2026-04-28 09:27 | 51.77641 | 4.65207 | 19700 ft | 396 kts | 203° |
| 2026-04-28 09:27 | 51.75150 | 4.63269 | 20305 ft | 399 kts | 203° |
| 2026-04-28 09:27 | 51.72636 | 4.61316 | 20924 ft | 402 kts | 203° |
| 2026-04-28 09:28 | 51.70100 | 4.59349 | 21508 ft | 405 kts | 203° |
| 2026-04-28 09:28 | 51.67554 | 4.57375 | 22092 ft | 408 kts | 203° |
| 2026-04-28 09:28 | 51.64976 | 4.55379 | 22672 ft | 411 kts | 203° |
| 2026-04-28 09:28 | 51.62372 | 4.53365 | 23253 ft | 414 kts | 203° |
| 2026-04-28 09:29 | 51.59801 | 4.51379 | 23776 ft | 417 kts | 203° |
| 2026-04-28 09:29 | 51.57159 | 4.49339 | 24242 ft | 419 kts | 204° |
| 2026-04-28 09:29 | 51.54537 | 4.47315 | 24709 ft | 421 kts | 204° |
| 2026-04-28 09:29 | 51.51858 | 4.45251 | 25157 ft | 424 kts | 204° |
| 2026-04-28 09:30 | 51.49190 | 4.43197 | 25610 ft | 426 kts | 204° |
| 2026-04-28 09:30 | 51.46525 | 4.41147 | 26053 ft | 427 kts | 204° |
| 2026-04-28 09:30 | 51.43846 | 4.39090 | 26428 ft | 431 kts | 204° |
| 2026-04-28 09:30 | 51.41144 | 4.37019 | 26806 ft | 433 kts | 205° |
| 2026-04-28 09:31 | 51.38396 | 4.34936 | 27253 ft | 434 kts | 204° |
| 2026-04-28 09:31 | 51.35641 | 4.32881 | 27668 ft | 436 kts | 204° |
| 2026-04-28 09:31 | 51.32897 | 4.30840 | 27972 ft | 440 kts | 205° |
| 2026-04-28 09:31 | 51.30095 | 4.28746 | 28310 ft | 442 kts | 205° |
| 2026-04-28 09:32 | 51.27338 | 4.26647 | 28688 ft | 444 kts | 205° |
| 2026-04-28 09:32 | 51.24522 | 4.24496 | 29087 ft | 445 kts | 206° |
| 2026-04-28 09:32 | 51.21688 | 4.22484 | 29439 ft | 447 kts | 198° |
| 2026-04-28 09:32 | 51.18653 | 4.21685 | 29846 ft | 449 kts | 181° |
| 2026-04-28 09:33 | 51.15550 | 4.22277 | 30397 ft | 449 kts | 168° |
| 2026-04-28 09:33 | 51.12604 | 4.23991 | 30760 ft | 453 kts | 154° |
| 2026-04-28 09:33 | 51.09997 | 4.26872 | 31002 ft | 460 kts | 142° |
| 2026-04-28 09:33 | 51.07558 | 4.30194 | 31299 ft | 461 kts | 141° |
| 2026-04-28 09:34 | 51.05174 | 4.33532 | 31659 ft | 461 kts | 141° |
| 2026-04-28 09:34 | 51.02756 | 4.36897 | 32060 ft | 459 kts | 141° |
| 2026-04-28 09:34 | 51.00337 | 4.40211 | 32441 ft | 458 kts | 141° |
| 2026-04-28 09:34 | 50.97936 | 4.43454 | 32811 ft | 457 kts | 141° |
| 2026-04-28 09:35 | 50.95502 | 4.46715 | 33169 ft | 457 kts | 141° |
| 2026-04-28 09:35 | 50.93065 | 4.49973 | 33524 ft | 456 kts | 141° |
| 2026-04-28 09:35 | 50.90662 | 4.53181 | 33858 ft | 456 kts | 141° |
| 2026-04-28 09:35 | 50.88322 | 4.56585 | 34198 ft | 456 kts | 137° |
| 2026-04-28 09:36 | 50.86055 | 4.60157 | 34445 ft | 457 kts | 135° |
| 2026-04-28 09:36 | 50.83838 | 4.63728 | 34684 ft | 458 kts | 135° |
| 2026-04-28 09:36 | 50.81590 | 4.67338 | 34918 ft | 459 kts | 136° |
| 2026-04-28 09:36 | 50.79329 | 4.70927 | 35129 ft | 460 kts | 136° |
| 2026-04-28 09:37 | 50.77085 | 4.74455 | 35350 ft | 461 kts | 136° |
| 2026-04-28 09:37 | 50.74791 | 4.78044 | 35585 ft | 461 kts | 136° |
| 2026-04-28 09:37 | 50.72522 | 4.81577 | 35804 ft | 462 kts | 136° |
| 2026-04-28 09:37 | 50.70216 | 4.85161 | 36012 ft | 463 kts | 136° |
| 2026-04-28 09:38 | 50.67913 | 4.88737 | 36225 ft | 464 kts | 136° |
| 2026-04-28 09:38 | 50.65596 | 4.92333 | 36439 ft | 465 kts | 136° |
| 2026-04-28 09:38 | 50.63314 | 4.95876 | 36672 ft | 466 kts | 136° |
| 2026-04-28 09:38 | 50.60996 | 4.99473 | 36902 ft | 466 kts | 136° |
| 2026-04-28 09:39 | 50.58700 | 5.03033 | 37094 ft | 467 kts | 136° |
| 2026-04-28 09:39 | 50.56367 | 5.06648 | 37292 ft | 468 kts | 136° |
| 2026-04-28 09:39 | 50.54066 | 5.10207 | 37507 ft | 469 kts | 136° |
| 2026-04-28 09:39 | 50.51734 | 5.13810 | 37724 ft | 469 kts | 136° |
| 2026-04-28 09:40 | 50.49420 | 5.17379 | 37911 ft | 470 kts | 136° |
| 2026-04-28 09:40 | 50.47071 | 5.20995 | 38127 ft | 471 kts | 136° |
| 2026-04-28 09:40 | 50.44724 | 5.24604 | 38337 ft | 471 kts | 136° |
| 2026-04-28 09:40 | 50.42376 | 5.28210 | 38528 ft | 472 kts | 136° |
| 2026-04-28 09:41 | 50.40049 | 5.31775 | 38713 ft | 472 kts | 136° |
| 2026-04-28 09:41 | 50.37685 | 5.35394 | 38899 ft | 472 kts | 136° |
| 2026-04-28 09:41 | 50.35344 | 5.38973 | 39083 ft | 470 kts | 136° |
| 2026-04-28 09:41 | 50.32995 | 5.42559 | 39136 ft | 471 kts | 136° |
| 2026-04-28 09:42 | 50.28303 | 5.49706 | 39132 ft | 475 kts | 136° |
| 2026-04-28 09:42 | 50.23546 | 5.56930 | 39130 ft | 476 kts | 136° |
| 2026-04-28 09:43 | 50.18802 | 5.64113 | 39114 ft | 476 kts | 137° |
| 2026-04-28 09:43 | 50.14049 | 5.71292 | 39119 ft | 477 kts | 137° |
| 2026-04-28 09:44 | 50.09259 | 5.78505 | 39103 ft | 476 kts | 137° |
| 2026-04-28 09:44 | 50.04506 | 5.85635 | 39105 ft | 476 kts | 137° |
| 2026-04-28 09:45 | 49.99757 | 5.92738 | 39106 ft | 475 kts | 137° |
| 2026-04-28 09:45 | 49.94986 | 5.99852 | 39105 ft | 475 kts | 137° |
| 2026-04-28 09:46 | 49.90217 | 6.06915 | 39097 ft | 474 kts | 138° |
| 2026-04-28 09:46 | 49.85183 | 6.13443 | 39096 ft | 471 kts | 150° |
| 2026-04-28 09:47 | 49.79287 | 6.17815 | 39104 ft | 467 kts | 159° |
| 2026-04-28 09:47 | 49.73309 | 6.21714 | 39093 ft | 467 kts | 159° |
| 2026-04-28 09:48 | 49.67359 | 6.25715 | 39102 ft | 467 kts | 159° |
| 2026-04-28 09:48 | 49.61399 | 6.29728 | 39098 ft | 467 kts | 160° |
| 2026-04-28 09:49 | 49.55403 | 6.33595 | 39103 ft | 467 kts | 160° |
| 2026-04-28 09:49 | 49.49407 | 6.37450 | 39100 ft | 467 kts | 160° |
| 2026-04-28 09:50 | 49.43419 | 6.41367 | 39082 ft | 468 kts | 159° |
| 2026-04-28 09:50 | 49.37504 | 6.45401 | 39084 ft | 468 kts | 159° |
| 2026-04-28 09:51 | 49.31552 | 6.49465 | 39073 ft | 468 kts | 159° |
| 2026-04-28 09:51 | 49.25594 | 6.53499 | 39075 ft | 468 kts | 159° |
| 2026-04-28 09:52 | 49.19656 | 6.57498 | 39074 ft | 468 kts | 160° |
| 2026-04-28 09:52 | 49.13662 | 6.61524 | 39070 ft | 468 kts | 160° |
| 2026-04-28 09:53 | 49.07696 | 6.65523 | 39069 ft | 468 kts | 160° |
| 2026-04-28 09:53 | 49.01749 | 6.69463 | 39063 ft | 466 kts | 163° |
| 2026-04-28 09:54 | 48.95533 | 6.71541 | 39058 ft | 455 kts | 181° |
| 2026-04-28 09:54 | 48.89247 | 6.71364 | 39056 ft | 451 kts | 186° |
| 2026-04-28 09:55 | 48.82984 | 6.71018 | 39054 ft | 450 kts | 186° |
| 2026-04-28 09:55 | 48.76729 | 6.70733 | 39056 ft | 450 kts | 186° |
| 2026-04-28 09:56 | 48.70483 | 6.70485 | 39052 ft | 449 kts | 186° |
| 2026-04-28 09:56 | 48.64253 | 6.70245 | 39050 ft | 448 kts | 186° |
| 2026-04-28 09:57 | 48.58015 | 6.70004 | 39050 ft | 447 kts | 186° |
| 2026-04-28 09:57 | 48.51792 | 6.69761 | 39044 ft | 447 kts | 186° |
| 2026-04-28 09:58 | 48.45599 | 6.69521 | 39051 ft | 447 kts | 186° |
| 2026-04-28 09:58 | 48.39371 | 6.69280 | 39045 ft | 447 kts | 186° |
| 2026-04-28 09:59 | 48.33131 | 6.69043 | 39049 ft | 450 kts | 186° |
| 2026-04-28 09:59 | 48.26862 | 6.68809 | 39044 ft | 453 kts | 186° |
| 2026-04-28 10:00 | 48.20517 | 6.68572 | 39044 ft | 455 kts | 186° |
| 2026-04-28 10:00 | 48.14205 | 6.68337 | 39049 ft | 456 kts | 186° |
| 2026-04-28 10:01 | 48.07863 | 6.68101 | 39044 ft | 456 kts | 186° |
| 2026-04-28 10:01 | 48.01504 | 6.67865 | 39046 ft | 456 kts | 186° |
| 2026-04-28 10:02 | 47.95177 | 6.67631 | 39050 ft | 455 kts | 186° |
| 2026-04-28 10:02 | 47.88866 | 6.67398 | 39034 ft | 455 kts | 186° |
| 2026-04-28 10:03 | 47.82563 | 6.67166 | 39042 ft | 454 kts | 186° |
| 2026-04-28 10:03 | 47.76234 | 6.66934 | 39049 ft | 453 kts | 185° |
| 2026-04-28 10:04 | 47.69948 | 6.66703 | 39049 ft | 451 kts | 186° |
| 2026-04-28 10:04 | 47.63687 | 6.66474 | 39049 ft | 451 kts | 186° |
| 2026-04-28 10:05 | 47.58462 | 6.66283 | 39044 ft | 450 kts | 186° |
| 2026-04-28 10:05 | 47.52229 | 6.66055 | 39051 ft | 449 kts | 186° |
| 2026-04-28 10:06 | 47.45957 | 6.65827 | 39041 ft | 449 kts | 186° |
| 2026-04-28 10:06 | 47.39913 | 6.64378 | 39055 ft | 436 kts | 206° |
| 2026-04-28 10:07 | 47.34879 | 6.59779 | 39073 ft | 426 kts | 224° |
| 2026-04-28 10:07 | 47.30385 | 6.54014 | 39050 ft | 427 kts | 224° |
| 2026-04-28 10:08 | 47.25898 | 6.48302 | 39052 ft | 428 kts | 224° |
| 2026-04-28 10:08 | 47.21368 | 6.42626 | 39046 ft | 430 kts | 223° |
| 2026-04-28 10:09 | 47.16794 | 6.36930 | 39050 ft | 431 kts | 223° |
| 2026-04-28 10:09 | 47.12229 | 6.31253 | 39047 ft | 432 kts | 223° |
| 2026-04-28 10:10 | 47.07411 | 6.25974 | 39032 ft | 438 kts | 211° |
| 2026-04-28 10:10 | 47.01605 | 6.23124 | 39025 ft | 448 kts | 192° |
| 2026-04-28 10:11 | 46.95350 | 6.22269 | 39033 ft | 451 kts | 189° |
| 2026-04-28 10:11 | 46.89109 | 6.21554 | 39032 ft | 450 kts | 189° |
| 2026-04-28 10:12 | 46.82865 | 6.20775 | 39038 ft | 450 kts | 189° |
| 2026-04-28 10:12 | 46.76629 | 6.19952 | 39035 ft | 450 kts | 189° |
| 2026-04-28 10:13 | 46.70387 | 6.19120 | 39043 ft | 450 kts | 189° |
| 2026-04-28 10:13 | 46.64168 | 6.18293 | 39046 ft | 450 kts | 189° |
| 2026-04-28 10:14 | 46.57949 | 6.17471 | 39053 ft | 451 kts | 189° |
| 2026-04-28 10:14 | 46.51674 | 6.16643 | 39060 ft | 451 kts | 189° |
| 2026-04-28 10:15 | 46.45428 | 6.15822 | 39059 ft | 452 kts | 189° |
| 2026-04-28 10:15 | 46.39164 | 6.15000 | 39065 ft | 453 kts | 189° |
| 2026-04-28 10:16 | 46.32863 | 6.14174 | 39075 ft | 454 kts | 189° |
| 2026-04-28 10:16 | 46.26580 | 6.14213 | 39072 ft | 465 kts | 169° |
| 2026-04-28 10:17 | 46.23546 | 6.15927 | 39073 ft | 473 kts | 153° |
| 2026-04-28 10:17 | 46.20918 | 6.18820 | 39092 ft | 478 kts | 139° |
| 2026-04-28 10:17 | 46.16109 | 6.25463 | 39082 ft | 480 kts | 139° |
| 2026-04-28 10:18 | 46.11246 | 6.32152 | 38745 ft | 487 kts | 139° |
| 2026-04-28 10:18 | 46.08793 | 6.35463 | 38156 ft | 485 kts | 140° |
| 2026-04-28 10:18 | 46.06322 | 6.38771 | 37457 ft | 483 kts | 140° |
| 2026-04-28 10:19 | 46.03856 | 6.42056 | 36848 ft | 480 kts | 140° |
| 2026-04-28 10:19 | 46.01399 | 6.45319 | 36195 ft | 479 kts | 141° |
| 2026-04-28 10:19 | 45.98987 | 6.48519 | 35527 ft | 478 kts | 141° |
| 2026-04-28 10:19 | 45.96539 | 6.51764 | 34828 ft | 479 kts | 141° |
| 2026-04-28 10:20 | 45.94072 | 6.55032 | 34111 ft | 480 kts | 141° |
| 2026-04-28 10:20 | 45.91612 | 6.58289 | 33265 ft | 480 kts | 141° |
| 2026-04-28 10:20 | 45.89148 | 6.61549 | 32474 ft | 480 kts | 141° |
| 2026-04-28 10:20 | 45.86714 | 6.64765 | 31675 ft | 480 kts | 141° |
| 2026-04-28 10:21 | 45.84247 | 6.68021 | 30848 ft | 481 kts | 141° |
| 2026-04-28 10:21 | 45.81797 | 6.71248 | 29965 ft | 482 kts | 141° |
| 2026-04-28 10:21 | 45.79323 | 6.74497 | 29094 ft | 481 kts | 141° |
| 2026-04-28 10:21 | 45.77196 | 6.77274 | 28279 ft | 480 kts | 141° |
| 2026-04-28 10:22 | 45.74750 | 6.80458 | 27303 ft | 480 kts | 140° |
| 2026-04-28 10:22 | 45.72273 | 6.83680 | 26513 ft | 475 kts | 140° |
| 2026-04-28 10:22 | 45.69829 | 6.86855 | 25803 ft | 474 kts | 140° |
| 2026-04-28 10:22 | 45.67422 | 6.89981 | 25113 ft | 469 kts | 140° |
| 2026-04-28 10:23 | 45.65008 | 6.93114 | 24388 ft | 464 kts | 140° |
| 2026-04-28 10:23 | 45.62635 | 6.96189 | 23702 ft | 460 kts | 140° |
| 2026-04-28 10:23 | 45.60267 | 6.99254 | 22877 ft | 457 kts | 140° |
| 2026-04-28 10:23 | 45.57932 | 7.02274 | 22144 ft | 452 kts | 140° |
| 2026-04-28 10:24 | 45.55609 | 7.05276 | 21437 ft | 446 kts | 140° |
| 2026-04-28 10:24 | 45.53326 | 7.08222 | 20728 ft | 441 kts | 140° |
| 2026-04-28 10:24 | 45.51048 | 7.11166 | 20040 ft | 435 kts | 140° |
| 2026-04-28 10:24 | 45.48826 | 7.14048 | 19365 ft | 430 kts | 140° |
| 2026-04-28 10:25 | 45.46618 | 7.16914 | 18700 ft | 426 kts | 140° |
| 2026-04-28 10:25 | 45.44434 | 7.19747 | 17939 ft | 423 kts | 140° |
| 2026-04-28 10:25 | 45.42288 | 7.22528 | 17220 ft | 417 kts | 140° |
| 2026-04-28 10:25 | 45.40140 | 7.25308 | 16547 ft | 412 kts | 140° |
| 2026-04-28 10:26 | 45.38029 | 7.28035 | 15883 ft | 406 kts | 139° |
| 2026-04-28 10:26 | 45.35956 | 7.30711 | 15238 ft | 402 kts | 139° |
| 2026-04-28 10:26 | 45.33886 | 7.33381 | 14599 ft | 398 kts | 139° |
| 2026-04-28 10:26 | 45.31878 | 7.35968 | 14181 ft | 390 kts | 139° |
| 2026-04-28 10:27 | 45.29872 | 7.38549 | 13572 ft | 387 kts | 139° |
| 2026-04-28 10:27 | 45.27980 | 7.41253 | 12871 ft | 384 kts | 133° |
| 2026-04-28 10:27 | 45.26212 | 7.44115 | 12204 ft | 381 kts | 132° |
| 2026-04-28 10:27 | 45.24470 | 7.46963 | 11548 ft | 378 kts | 133° |
| 2026-04-28 10:28 | 45.22549 | 7.49356 | 10885 ft | 364 kts | 152° |
| 2026-04-28 10:28 | 45.20225 | 7.50578 | 10278 ft | 348 kts | 170° |
| 2026-04-28 10:28 | 45.17880 | 7.50791 | 9635 ft | 337 kts | 183° |
| 2026-04-28 10:29 | 45.13281 | 7.50423 | 8258 ft | 321 kts | 184° |
| 2026-04-28 10:29 | 45.11100 | 7.50267 | 7624 ft | 316 kts | 183° |
| 2026-04-28 10:29 | 45.08911 | 7.50124 | 6983 ft | 311 kts | 182° |
| 2026-04-28 10:29 | 45.06752 | 7.49993 | 6351 ft | 307 kts | 182° |
| 2026-04-28 10:30 | 45.04631 | 7.49874 | 5694 ft | 303 kts | 179° |
| 2026-04-28 10:30 | 45.02604 | 7.50451 | 5036 ft | 300 kts | 155° |
| 2026-04-28 10:30 | 45.00959 | 7.52161 | 4488 ft | 292 kts | 129° |
| 2026-04-28 10:30 | 45.00004 | 7.54597 | 4154 ft | 279 kts | 105° |
| 2026-04-28 10:31 | 44.99836 | 7.57237 | 4020 ft | 260 kts | 82° |
| 2026-04-28 10:31 | 45.00314 | 7.59594 | 4001 ft | 240 kts | 65° |
| 2026-04-28 10:31 | 45.01157 | 7.61490 | 3985 ft | 218 kts | 47° |
| 2026-04-28 10:31 | 45.02218 | 7.62841 | 4004 ft | 201 kts | 38° |
| 2026-04-28 10:32 | 45.03491 | 7.63620 | 3967 ft | 197 kts | 11° |
| 2026-04-28 10:32 | 45.04840 | 7.63900 | 3702 ft | 196 kts | 8° |
| 2026-04-28 10:32 | 45.06182 | 7.64068 | 3440 ft | 189 kts | 5° |
| 2026-04-28 10:32 | 45.07452 | 7.64157 | 3194 ft | 176 kts | 4° |
| 2026-04-28 10:33 | 45.08646 | 7.64229 | 2950 ft | 166 kts | 4° |
| 2026-04-28 10:33 | 45.09785 | 7.64301 | 2735 ft | 160 kts | 5° |
| 2026-04-28 10:33 | 45.10866 | 7.64373 | 2561 ft | 151 kts | 5° |
| 2026-04-28 10:33 | 45.11913 | 7.64443 | 2343 ft | 148 kts | 5° |
| 2026-04-28 10:34 | 45.12957 | 7.64521 | 2147 ft | 151 kts | 3° |
| 2026-04-28 10:34 | 45.13999 | 7.64579 | 1946 ft | 150 kts | 3° |
| 2026-04-28 10:34 | 45.15035 | 7.64644 | 1741 ft | 147 kts | 3° |
| 2026-04-28 10:34 | 45.16064 | 7.64706 | 1536 ft | 147 kts | 2° |
| 2026-04-28 10:35 | 45.17078 | 7.64772 | 1349 ft | 146 kts | 1° |
| 2026-04-28 10:35 | 45.18080 | 7.64840 | 1142 ft | 144 kts | 1° |
| 2026-04-28 10:35 | 45.19069 | 7.64902 | 967 ft | 140 kts | 2° |
| 2026-04-28 10:35 | 45.19967 | 7.64962 | 963 ft | 111 kts | 2° |
| 2026-04-28 10:36 | 45.20542 | 7.64993 | 986 ft | 56 kts | 2° |
| 2026-04-28 10:36 | 45.20798 | 7.64999 | 992 ft | 24 kts | 343° |
| 2026-04-28 10:36 | 45.20871 | 7.64819 | 993 ft | 23 kts | 255° |
| 2026-04-28 10:36 | 45.20738 | 7.64739 | 992 ft | 22 kts | 182° |
| 2026-04-28 10:37 | 45.20586 | 7.64731 | 992 ft | 22 kts | 182° |
| 2026-04-28 10:37 | 45.20433 | 7.64721 | 983 ft | 22 kts | 183° |
| 2026-04-28 10:37 | 45.20275 | 7.64708 | 980 ft | 24 kts | 184° |
| 2026-04-28 10:37 | 45.20094 | 7.64697 | 969 ft | 27 kts | 182° |
| 2026-04-28 10:38 | 45.19911 | 7.64685 | 962 ft | 27 kts | 182° |
| 2026-04-28 10:38 | 45.19738 | 7.64698 | 958 ft | 17 kts | 177° |
| 2026-04-28 10:38 | 45.19644 | 7.64694 | 959 ft | 8 kts | 185° |
| 2026-04-28 10:38 | 45.19612 | 7.64673 | 956 ft | 3 kts | 262° |
| 2026-04-28 10:39 | 45.19613 | 7.64626 | 960 ft | 7 kts | 272° |
| 2026-04-28 10:39 | 45.19634 | 7.64541 | 959 ft | 9 kts | 337° |
| 2026-04-28 10:39 | 45.19659 | 7.64586 | 959 ft | 6 kts | 90° |
| 2026-04-28 10:39 | 45.19658 | 7.64604 | 959 ft | 0 kts | 91° |